createdAt,value
2023-11-28T00:03:51.954Z,99925.25
2023-11-28T00:08:56.260Z,99938.91
2023-11-28T00:14:00.265Z,99945.94
2023-11-28T00:19:05.139Z,99957.91
2023-11-28T00:24:09.235Z,99950.97
2023-11-28T00:29:12.338Z,99963.19
2023-11-28T00:34:16.709Z,99970.09
2023-11-28T00:39:20.149Z,99990.09
2023-11-28T00:44:23.517Z,100003.00
2023-11-28T00:49:28.505Z,100011.69
2023-11-28T00:54:31.547Z,100014.66
2023-11-28T00:59:34.840Z,100026.19
2023-11-28T01:04:40.086Z,100030.38
2023-11-28T01:09:43.197Z,100043.44
2023-11-28T01:14:46.375Z,100064.00
2023-11-28T01:19:51.224Z,100072.28
2023-11-28T01:24:54.333Z,100073.69
2023-11-28T01:29:57.457Z,100080.59
2023-11-28T01:35:01.919Z,100097.69
2023-11-28T01:40:05.767Z,100090.81
2023-11-28T01:45:10.304Z,100106.81
2023-11-28T01:50:14.699Z,100134.41
2023-11-28T01:55:18.314Z,100149.53
2023-11-28T02:00:21.433Z,100153.31
2023-11-28T02:05:26.679Z,100164.66
2023-11-28T02:10:29.900Z,100173.88
2023-11-28T02:15:43.727Z,100186.09
2023-11-28T02:20:47.990Z,100208.41
2023-11-28T02:25:53.197Z,100201.28
2023-11-28T02:30:59.892Z,100206.88
2023-11-28T02:36:03.105Z,100218.34
2023-11-28T02:41:08.246Z,100231.94
2023-11-28T02:46:13.769Z,100242.56
2023-11-28T02:51:20.969Z,100253.63
2023-11-28T02:56:27.348Z,100267.84
2023-11-28T03:01:31.760Z,100261.03
2023-11-28T03:06:34.841Z,100272.91
2023-11-28T03:11:37.881Z,100283.00
2023-11-28T03:16:44.038Z,100290.34
2023-11-28T03:21:47.132Z,100295.94
2023-11-28T03:26:50.073Z,100302.75
2023-11-28T03:31:54.523Z,100318.78
2023-11-28T03:36:59.361Z,100318.69
2023-11-28T03:42:02.760Z,100333.75
2023-11-28T03:47:08.358Z,100339.16
2023-11-28T03:52:11.572Z,100350.22
2023-11-28T03:57:15.003Z,100361.66
2023-11-28T04:02:19.920Z,100357.56
2023-11-28T04:07:24.355Z,100359.03
2023-11-28T04:12:27.669Z,100360.03
2023-11-28T04:17:32.117Z,100373.75
2023-11-28T04:22:35.303Z,100380.78
2023-11-28T04:27:38.495Z,100384.81
2023-11-28T04:32:43.598Z,100400.56
2023-11-28T04:37:49.061Z,100410.19
2023-11-28T04:42:52.739Z,100419.09
2023-11-28T04:47:58.159Z,100439.91
2023-11-28T04:53:01.403Z,100441.28
2023-11-28T04:58:04.870Z,100443.44
2023-11-28T05:03:09.471Z,100453.88
2023-11-28T05:08:13.286Z,100465.34
2023-11-28T05:13:16.433Z,100482.09
2023-11-28T05:18:20.857Z,100498.38
2023-11-28T05:23:24.641Z,100513.19
2023-11-28T05:28:28.007Z,100516.13
2023-11-28T05:33:32.700Z,100522.84
2023-11-28T05:38:36.147Z,100529.69
2023-11-28T05:43:39.572Z,100536.78
2023-11-28T05:48:44.356Z,100549.47
2023-11-28T05:53:47.813Z,100554.53
2023-11-28T05:58:51.045Z,100562.41
2023-11-28T06:03:55.601Z,100564.84
2023-11-28T06:08:58.665Z,100572.72
2023-11-28T06:14:02.478Z,100580.72
2023-11-28T06:19:06.956Z,100587.31
2023-11-28T06:24:10.541Z,100596.22
2023-11-28T06:29:13.733Z,100603.06
2023-11-28T06:34:18.158Z,100601.16
2023-11-28T06:39:24.661Z,100610.34
2023-11-28T06:44:30.410Z,100628.28
2023-11-28T06:49:35.797Z,100641.78
2023-11-28T06:54:39.197Z,100662.66
2023-11-28T06:59:42.833Z,100666.69
2023-11-28T07:04:47.226Z,100677.78
2023-11-28T07:09:50.315Z,100675.22
2023-11-28T07:14:53.447Z,100678.03
2023-11-28T07:19:58.573Z,100690.72
2023-11-28T07:25:02.342Z,100699.69
2023-11-28T07:30:07.489Z,100716.84
2023-11-28T07:35:12.055Z,100725.28
2023-11-28T07:40:15.341Z,100735.84
2023-11-28T07:45:18.718Z,100749.66
2023-11-28T07:50:24.768Z,100749.53
2023-11-28T07:55:31.351Z,100754.03
2023-11-28T08:00:34.427Z,100764.59
2023-11-28T08:05:39.451Z,100766.50
2023-11-28T08:10:42.806Z,100770.25
2023-11-28T08:15:46.022Z,100758.06
2023-11-28T08:20:50.569Z,100769.41
2023-11-28T08:25:53.763Z,100769.75
2023-11-28T08:30:57.136Z,100772.47
2023-11-28T08:36:01.572Z,100770.34
2023-11-28T08:41:04.981Z,100784.19
2023-11-28T08:46:08.552Z,100792.34
2023-11-28T08:51:13.439Z,100805.09
2023-11-28T08:56:17.203Z,100802.44
2023-11-28T09:01:20.411Z,100809.09
2023-11-28T09:06:26.383Z,100818.78
2023-11-28T09:11:29.876Z,100817.84
2023-11-28T09:16:33.211Z,100832.91
2023-11-28T09:21:38.156Z,100837.41
2023-11-28T09:26:41.279Z,100853.38
2023-11-28T09:31:44.414Z,100853.13
2023-11-28T09:36:49.000Z,100864.59
2023-11-28T09:41:52.785Z,100860.59
2023-11-28T09:46:58.852Z,100871.22
2023-11-28T09:52:04.442Z,100860.59
2023-11-28T09:57:08.440Z,100856.00
2023-11-28T10:02:14.394Z,100860.72
2023-11-28T10:07:23.269Z,100859.34
2023-11-28T10:12:26.461Z,100874.34
2023-11-28T10:17:29.719Z,100857.06
2023-11-28T10:22:35.147Z,100875.16
2023-11-28T10:27:41.033Z,100876.56
2023-11-28T10:32:44.484Z,100880.56
2023-11-28T10:37:49.062Z,100883.66
2023-11-28T10:42:53.287Z,100870.97
2023-11-28T10:47:57.292Z,100862.78
2023-11-28T10:53:05.663Z,100859.28
2023-11-28T10:58:14.120Z,100863.75
2023-11-28T11:03:18.343Z,100859.88
2023-11-28T11:08:24.342Z,100854.72
2023-11-28T11:13:37.648Z,100861.72
2023-11-28T11:18:43.253Z,100855.66
2023-11-28T11:23:49.706Z,100860.84
2023-11-28T11:28:52.938Z,100860.38
2023-11-28T11:33:55.996Z,100867.88
2023-11-28T11:39:00.476Z,100860.31
2023-11-28T11:44:04.129Z,100860.47
2023-11-28T11:49:07.227Z,100868.09
2023-11-28T11:54:12.706Z,100866.16
2023-11-28T11:59:21.821Z,100859.50
2023-11-28T12:04:25.247Z,100858.25
2023-11-28T12:09:30.094Z,100858.22
2023-11-28T12:14:33.349Z,100856.16
2023-11-28T12:19:36.909Z,100856.72
2023-11-28T12:24:41.522Z,100851.69
2023-11-28T12:29:45.278Z,100861.84
2023-11-28T12:34:48.426Z,100851.16
2023-11-28T12:39:56.278Z,100849.88
2023-11-28T12:44:59.566Z,100845.47
2023-11-28T12:50:03.989Z,100856.50
2023-11-28T12:55:13.424Z,100870.81
2023-11-28T13:00:17.233Z,100875.16
2023-11-28T13:05:20.435Z,100877.31
2023-11-28T13:10:24.820Z,100878.06
2023-11-28T13:15:27.922Z,100872.91
2023-11-28T13:20:31.047Z,100879.19
2023-11-28T13:25:35.473Z,100881.88
2023-11-28T13:30:39.099Z,100885.56
2023-11-28T13:35:42.432Z,100880.97
2023-11-28T13:40:48.631Z,100890.31
2023-11-28T13:45:52.516Z,100894.78
2023-11-28T13:50:56.131Z,100888.97
2023-11-28T13:56:00.708Z,100885.31
2023-11-28T14:01:05.206Z,100890.25
2023-11-28T14:06:08.901Z,100889.75
2023-11-28T14:11:13.590Z,100890.50
2023-11-28T14:16:16.783Z,100882.25
2023-11-28T14:21:20.015Z,100876.88
2023-11-28T14:26:24.790Z,100880.78
2023-11-28T14:31:28.304Z,100887.16
2023-11-28T14:36:31.464Z,100886.84
2023-11-28T14:41:36.061Z,100894.97
2023-11-28T14:46:39.452Z,100888.63
2023-11-28T14:51:42.969Z,100891.38
2023-11-28T14:56:50.439Z,100892.97
2023-11-28T15:01:54.730Z,100891.31
2023-11-28T15:06:58.004Z,100878.25
2023-11-28T15:12:05.015Z,100871.53
2023-11-28T15:17:11.769Z,100878.53
2023-11-28T15:22:19.636Z,100900.50
2023-11-28T15:27:24.817Z,100891.53
2023-11-28T15:32:29.461Z,100895.06
2023-11-28T15:37:32.796Z,100878.41
2023-11-28T15:42:38.021Z,100870.91
2023-11-28T15:47:41.618Z,100874.84
2023-11-28T15:52:44.918Z,100874.44
2023-11-28T15:57:52.644Z,100869.34
2023-11-28T16:02:59.270Z,100874.66
2023-11-28T16:08:05.483Z,100866.97
2023-11-28T16:13:12.822Z,100865.06
2023-11-28T16:18:16.047Z,100859.47
2023-11-28T16:23:19.203Z,100862.16
2023-11-28T16:28:24.010Z,100845.06
2023-11-28T16:33:27.303Z,100842.06
2023-11-28T16:38:39.393Z,100835.34
2023-11-28T16:43:44.819Z,100835.34
2023-11-28T16:48:48.238Z,100841.59
2023-11-28T16:53:51.362Z,100834.31
2023-11-28T16:58:55.919Z,100821.00
2023-11-28T17:04:01.716Z,100830.88
2023-11-28T17:09:05.004Z,100832.72
2023-11-28T17:14:10.974Z,100828.09
2023-11-28T17:19:14.650Z,100837.47
2023-11-28T17:24:17.748Z,100847.53
2023-11-28T17:29:22.406Z,100845.50
2023-11-28T17:34:27.273Z,100834.97
2023-11-28T17:39:30.395Z,100831.91
2023-11-28T17:44:38.366Z,100827.28
2023-11-28T17:49:41.493Z,100819.28
2023-11-28T17:54:44.618Z,100823.34
2023-11-28T17:59:49.992Z,100819.53
2023-11-28T18:04:54.577Z,100817.47
2023-11-28T18:09:58.183Z,100812.09
2023-11-28T18:15:03.569Z,100824.91
2023-11-28T18:20:07.788Z,100815.03
2023-11-28T18:25:11.068Z,100802.75
2023-11-28T18:30:15.831Z,100804.97
2023-11-28T18:35:19.329Z,100798.16
2023-11-28T18:40:23.146Z,100786.22
2023-11-28T18:45:28.013Z,100779.44
2023-11-28T18:50:32.526Z,100772.44
2023-11-28T18:55:35.730Z,100747.88
2023-11-28T19:00:40.381Z,100732.72
2023-11-28T19:05:43.621Z,100725.09
2023-11-28T19:10:46.832Z,100714.22
2023-11-28T19:15:51.520Z,100723.28
2023-11-28T19:20:54.707Z,100728.28
2023-11-28T19:25:57.919Z,100734.03
2023-11-28T19:31:02.509Z,100716.59
2023-11-28T19:36:06.725Z,100690.38
2023-11-28T19:41:11.458Z,100695.22
2023-11-28T19:46:16.397Z,100689.94
2023-11-28T19:51:19.845Z,100681.97
2023-11-28T19:56:24.391Z,100677.19
2023-11-28T20:01:29.102Z,100685.34
2023-11-28T20:06:32.383Z,100674.50
2023-11-28T20:11:38.658Z,100669.31
2023-11-28T20:16:45.408Z,100658.16
2023-11-28T20:21:49.043Z,100660.25
2023-11-28T20:26:54.147Z,100640.31
2023-11-28T20:31:58.737Z,100628.16
2023-11-28T20:37:14.047Z,100623.69
2023-11-28T20:42:26.233Z,100621.66
2023-11-28T20:47:31.027Z,100622.34
2023-11-28T20:52:34.297Z,100607.00
2023-11-28T20:57:37.579Z,100604.22
2023-11-28T21:02:42.382Z,100585.38
2023-11-28T21:07:46.335Z,100572.22
2023-11-28T21:12:52.089Z,100579.00
2023-11-28T21:17:59.819Z,100572.72
2023-11-28T21:23:03.540Z,100579.28
2023-11-28T21:28:07.205Z,100569.41
2023-11-28T21:33:14.450Z,100556.16
2023-11-28T21:38:17.896Z,100558.53
2023-11-28T21:43:25.209Z,100557.56
2023-11-28T21:48:30.758Z,100551.56
2023-11-28T21:53:36.678Z,100550.00
2023-11-28T21:58:40.000Z,100537.72
2023-11-28T22:03:45.348Z,100534.94
2023-11-28T22:08:56.960Z,100529.25
2023-11-28T22:14:06.824Z,100533.75
2023-11-28T22:19:11.295Z,100527.72
2023-11-28T22:24:14.366Z,100517.28
2023-11-28T22:29:18.832Z,100521.88
2023-11-28T22:34:23.439Z,100518.88
2023-11-28T22:39:26.576Z,100525.47
2023-11-28T22:44:30.096Z,100561.34
2023-11-28T22:49:34.620Z,100565.94
2023-11-28T22:54:39.050Z,100554.88
2023-11-28T22:59:42.887Z,100539.22
2023-11-28T23:04:47.324Z,100537.28
2023-11-28T23:09:50.788Z,100526.41
2023-11-28T23:14:54.548Z,100505.63
2023-11-28T23:19:59.541Z,100495.03
2023-11-28T23:25:02.807Z,100498.59
2023-11-28T23:30:07.491Z,100517.28
2023-11-28T23:35:12.119Z,100503.31
2023-11-28T23:40:15.560Z,100515.53
2023-11-28T23:45:20.551Z,100495.38
2023-11-28T23:50:25.085Z,100506.19
2023-11-28T23:55:28.368Z,100509.34
